Terminal Aerodrome Forecast
Issued by NWS Louisville, KY

Home | Current Version | Previous Version | Text Only | Print | Product List | Glossary On
Versions: 1 2 3 4 5 6 7 8 9 10 11 12 13 14 15 16 17 18 19 20 21 22 23 24 25 26 27 28 29 30 31 32 33
778
FTUS43 KLMK 260520
TAFSDF
TAF
KSDF 260520Z 2606/2712 21008KT P6SM FEW250
     FM261300 22008KT P6SM VCSH SCT025 BKN035
     FM261600 24009KT P6SM SCT040 BKN250
     FM262000 24009KT P6SM VCTS BKN050CB
     FM270400 VRB04KT P6SM SCT020 BKN040=

USA.gov is the U.S. government's official web portal to all federal, state and local government web resources and services.